Time;durP1;ratioP1;P1;durP2;ratioP2;P2;SDS_P1;SDS_P2;PMS_P1;PMS_P2;Temp;Humidity;BMP_temperature;BMP_pressure;BME280_temperature;BME280_humidity;BME280_pressure;Samples;Min_cycle;Max_cycle;Signal;HPM_P1;HPM_P2
2023/01/25 00:01:46;;;;;;;0.60;0.60;;;0.60;99.90;;;;;;5067558;28;20194;-82
2023/01/25 00:04:11;;;;;;;0.57;0.57;;;0.60;99.90;;;;;;5068227;28;20186;-82
2023/01/25 00:06:37;;;;;;;0.50;0.50;;;0.60;99.90;;;;;;5070115;28;20218;-82
2023/01/25 00:09:03;;;;;;;0.60;0.60;;;0.60;99.90;;;;;;5062890;28;20194;-82
2023/01/25 00:11:29;;;;;;;0.57;0.57;;;0.60;99.90;;;;;;5067302;28;20324;-82
2023/01/25 00:13:55;;;;;;;0.33;0.33;;;0.50;99.90;;;;;;5067269;28;21027;-83
2023/01/25 00:16:22;;;;;;;0.50;0.50;;;0.50;99.90;;;;;;5066728;28;20251;-82
2023/01/25 00:18:48;;;;;;;0.60;0.60;;;0.50;99.90;;;;;;5068689;28;20436;-82
2023/01/25 00:21:16;;;;;;;0.40;0.40;;;0.50;99.90;;;;;;5071119;28;21035;-82
2023/01/25 00:23:41;;;;;;;0.50;0.50;;;0.50;99.90;;;;;;5060344;28;20431;-82
2023/01/25 00:26:07;;;;;;;0.50;0.50;;;0.40;99.90;;;;;;5070020;28;20950;-83
2023/01/25 00:28:33;;;;;;;0.50;0.50;;;0.40;99.90;;;;;;5064785;28;20721;-82
2023/01/25 00:30:59;;;;;;;0.50;0.50;;;0.50;99.90;;;;;;5064419;28;20194;-83
2023/01/25 00:34:11;;;;;;;0.60;0.60;;;0.50;99.90;;;;;;5067421;28;20277;-82
2023/01/25 00:36:36;;;;;;;0.40;0.40;;;0.50;99.90;;;;;;5025005;28;20923;-82
2023/01/25 00:39:03;;;;;;;0.50;0.50;;;0.50;99.90;;;;;;5022043;28;20473;-81
2023/01/25 00:41:30;;;;;;;0.50;0.50;;;0.50;99.90;;;;;;5046101;28;20194;-81
2023/01/25 00:43:56;;;;;;;0.50;0.50;;;0.50;99.90;;;;;;5066850;28;20437;-82
2023/01/25 00:46:22;;;;;;;0.60;0.60;;;0.50;99.90;;;;;;5066358;28;20467;-82
2023/01/25 00:48:47;;;;;;;0.50;0.50;;;0.50;99.90;;;;;;5058268;28;20190;-82
2023/01/25 00:51:14;;;;;;;0.53;0.53;;;0.50;99.90;;;;;;5069306;28;20224;-82
2023/01/25 00:53:40;;;;;;;0.30;0.30;;;0.50;99.90;;;;;;5066793;28;20697;-82
2023/01/25 00:56:06;;;;;;;0.50;0.50;;;0.50;99.90;;;;;;5064437;28;20646;-82
2023/01/25 00:58:31;;;;;;;0.50;0.50;;;0.50;99.90;;;;;;5067106;28;20209;-82
2023/01/25 01:00:57;;;;;;;0.50;0.50;;;0.50;99.90;;;;;;5063917;28;20850;-82
2023/01/25 01:03:22;;;;;;;0.40;0.40;;;0.50;99.90;;;;;;5067577;28;20294;-82
2023/01/25 01:05:57;;;;;;;0.50;0.50;;;0.50;99.90;;;;;;5065555;28;20281;-82
2023/01/25 01:08:22;;;;;;;0.40;0.40;;;0.60;99.90;;;;;;5059380;28;20331;-81
2023/01/25 01:10:48;;;;;;;0.57;0.57;;;0.50;99.90;;;;;;5068446;28;20502;-82
2023/01/25 01:13:13;;;;;;;0.40;0.40;;;0.50;99.90;;;;;;5065067;28;20195;-82
2023/01/25 01:15:39;;;;;;;0.60;0.60;;;0.50;99.90;;;;;;5067350;28;20677;-82
2023/01/25 01:18:04;;;;;;;0.50;0.50;;;0.50;99.90;;;;;;5065572;28;20186;-82
2023/01/25 01:20:30;;;;;;;0.40;0.40;;;0.50;99.90;;;;;;5053472;28;20272;-82
2023/01/25 01:22:55;;;;;;;0.50;0.50;;;0.50;99.90;;;;;;5058486;28;20222;-82
2023/01/25 01:25:21;;;;;;;0.50;0.50;;;0.40;99.90;;;;;;5067890;28;20661;-81
2023/01/25 01:27:46;;;;;;;0.50;0.50;;;0.50;99.90;;;;;;5066699;28;20186;-82
2023/01/25 01:30:12;;;;;;;0.53;0.53;;;0.50;99.90;;;;;;5063514;28;20185;-82
2023/01/25 01:32:38;;;;;;;0.40;0.40;;;0.50;99.90;;;;;;5061687;28;20265;-82
2023/01/25 01:35:03;;;;;;;0.40;0.40;;;0.50;99.90;;;;;;5061438;28;20200;-82
2023/01/25 01:37:29;;;;;;;0.47;0.47;;;0.50;99.90;;;;;;5063020;28;20206;-82
2023/01/25 01:39:54;;;;;;;0.37;0.37;;;0.50;99.90;;;;;;5066361;28;20232;-82
2023/01/25 01:42:20;;;;;;;0.47;0.47;;;0.40;99.90;;;;;;5064184;28;20185;-82
2023/01/25 01:44:53;;;;;;;0.50;0.50;;;0.40;99.90;;;;;;5066621;28;20188;-82
2023/01/25 01:47:21;;;;;;;0.47;0.47;;;0.40;99.90;;;;;;5064818;28;20186;-82
2023/01/25 01:49:53;;;;;;;0.50;0.50;;;0.40;99.90;;;;;;5065695;28;20433;-82
2023/01/25 01:52:22;;;;;;;0.50;0.50;;;0.50;99.90;;;;;;5063499;28;20440;-82
2023/01/25 01:55:01;;;;;;;0.40;0.40;;;0.30;99.90;;;;;;5068937;28;20483;-82
2023/01/25 01:57:30;;;;;;;0.50;0.50;;;0.40;99.90;;;;;;5067215;28;20963;-82
2023/01/25 01:59:57;;;;;;;0.57;0.57;;;0.40;99.90;;;;;;5071482;28;20536;-82
2023/01/25 02:02:25;;;;;;;0.63;0.63;;;0.30;99.90;;;;;;5069208;28;20843;-82
2023/01/25 02:04:54;;;;;;;0.50;0.50;;;0.30;99.90;;;;;;5061846;28;20448;-83
2023/01/25 02:07:35;;;;;;;0.50;0.50;;;0.20;99.90;;;;;;5068618;28;20948;-82
2023/01/25 02:10:08;;;;;;;0.70;0.70;;;0.20;99.90;;;;;;5054429;28;20425;-82
2023/01/25 02:12:35;;;;;;;0.50;0.50;;;0.20;99.90;;;;;;5066973;28;20516;-82
2023/01/25 02:15:01;;;;;;;0.40;0.40;;;0.20;99.90;;;;;;5071367;28;20451;-82
2023/01/25 02:17:33;;;;;;;0.40;0.40;;;0.20;99.90;;;;;;5062207;28;20470;-82
2023/01/25 02:20:05;;;;;;;0.50;0.50;;;0.20;99.90;;;;;;5060286;28;20290;-82
2023/01/25 02:22:44;;;;;;;0.60;0.60;;;0.20;99.90;;;;;;5065788;28;20441;-82
2023/01/25 02:25:12;;;;;;;0.50;0.50;;;0.30;99.90;;;;;;5071202;28;20535;-82
2023/01/25 02:27:41;;;;;;;0.50;0.50;;;0.30;99.90;;;;;;5072420;28;20446;-82
2023/01/25 02:30:08;;;;;;;0.60;0.60;;;0.20;99.90;;;;;;5068964;28;20443;-82
2023/01/25 02:32:33;;;;;;;0.60;0.60;;;0.30;99.90;;;;;;5071115;28;20444;-82
2023/01/25 02:34:59;;;;;;;0.60;0.60;;;0.20;99.90;;;;;;5069844;28;20444;-82
2023/01/25 02:37:25;;;;;;;0.50;0.50;;;0.20;99.90;;;;;;5064256;28;20914;-82
2023/01/25 02:39:51;;;;;;;0.47;0.47;;;0.20;99.90;;;;;;5068262;28;20788;-82
2023/01/25 02:42:16;;;;;;;0.60;0.60;;;0.30;99.90;;;;;;5056002;28;20452;-82
2023/01/25 02:44:43;;;;;;;0.60;0.60;;;0.20;99.90;;;;;;5061632;28;20467;-82
2023/01/25 02:47:08;;;;;;;0.53;0.53;;;0.30;99.90;;;;;;5069256;28;20228;-82
2023/01/25 02:49:35;;;;;;;0.40;0.40;;;0.20;99.90;;;;;;5070492;28;20479;-82
2023/01/25 02:52:02;;;;;;;0.50;0.50;;;0.20;99.90;;;;;;5070822;28;20217;-82
2023/01/25 02:54:28;;;;;;;0.60;0.60;;;0.20;99.90;;;;;;5067871;28;20487;-82
2023/01/25 02:56:54;;;;;;;0.50;0.50;;;0.20;99.90;;;;;;5061140;28;20467;-82
2023/01/25 02:59:20;;;;;;;0.50;0.50;;;0.30;99.90;;;;;;5071107;28;20550;-81
2023/01/25 03:01:46;;;;;;;0.50;0.50;;;0.40;99.90;;;;;;5071788;28;20455;-82
2023/01/25 03:04:11;;;;;;;0.60;0.60;;;0.30;99.90;;;;;;5072011;28;20427;-82
2023/01/25 03:06:38;;;;;;;0.60;0.60;;;0.30;99.90;;;;;;5067436;28;20201;-82
2023/01/25 03:09:05;;;;;;;0.60;0.60;;;0.30;99.90;;;;;;5068514;28;20723;-82
2023/01/25 03:11:31;;;;;;;0.50;0.50;;;0.30;99.90;;;;;;5067124;28;20448;-82
2023/01/25 03:13:57;;;;;;;0.57;0.57;;;0.20;99.90;;;;;;5069694;28;20447;-82
2023/01/25 03:16:22;;;;;;;0.60;0.60;;;0.20;99.90;;;;;;5068470;28;20179;-82
2023/01/25 03:18:48;;;;;;;0.43;0.43;;;0.30;99.90;;;;;;5067807;28;20194;-82
2023/01/25 03:21:16;;;;;;;0.60;0.60;;;0.30;99.90;;;;;;5069598;28;20279;-82
2023/01/25 03:23:42;;;;;;;0.50;0.50;;;0.20;99.90;;;;;;5068084;28;20365;-82
2023/01/25 03:26:14;;;;;;;0.50;0.50;;;0.30;99.90;;;;;;5068777;28;20475;-82
2023/01/25 03:28:41;;;;;;;0.60;0.60;;;0.20;99.90;;;;;;5066066;28;20799;-82
2023/01/25 03:31:09;;;;;;;0.60;0.60;;;0.10;99.90;;;;;;5068003;28;20452;-82
2023/01/25 03:33:35;;;;;;;0.50;0.50;;;0.10;99.90;;;;;;5069822;28;20443;-83
2023/01/25 03:36:01;;;;;;;0.50;0.50;;;0.10;99.90;;;;;;5069412;28;20440;-82
2023/01/25 03:38:27;;;;;;;0.50;0.50;;;-0.10;99.90;;;;;;5067484;28;21722;-82
2023/01/25 03:40:53;;;;;;;0.50;0.50;;;-0.10;99.90;;;;;;5069952;28;20498;-82
2023/01/25 03:43:19;;;;;;;0.60;0.60;;;-0.10;99.90;;;;;;5067713;28;20455;-82
2023/01/25 03:45:45;;;;;;;0.60;0.60;;;-0.10;99.90;;;;;;5067695;28;20724;-82
2023/01/25 03:48:11;;;;;;;0.57;0.57;;;-0.20;99.90;;;;;;5071619;28;20412;-82
2023/01/25 03:50:36;;;;;;;0.60;0.60;;;-0.10;99.90;;;;;;5064311;28;20229;-82
2023/01/25 03:53:06;;;;;;;0.60;0.60;;;-0.10;99.90;;;;;;5068837;28;20280;-83
2023/01/25 03:55:33;;;;;;;0.40;0.40;;;-0.10;99.90;;;;;;5067981;28;20216;-83
2023/01/25 03:57:58;;;;;;;0.50;0.50;;;-0.10;99.90;;;;;;5067748;28;20438;-82
2023/01/25 04:00:24;;;;;;;0.60;0.60;;;-0.20;99.90;;;;;;5059281;28;20488;-82
2023/01/25 04:02:49;;;;;;;0.50;0.50;;;-0.20;99.90;;;;;;5053368;28;20669;-82
2023/01/25 04:05:15;;;;;;;0.67;0.67;;;-0.10;99.90;;;;;;5063855;28;20193;-82
2023/01/25 04:07:41;;;;;;;0.60;0.60;;;-0.10;99.90;;;;;;5066021;28;20185;-82
2023/01/25 04:10:07;;;;;;;0.50;0.50;;;-0.10;99.90;;;;;;5068274;28;20688;-82
2023/01/25 04:12:33;;;;;;;0.53;0.53;;;-0.20;99.90;;;;;;5065972;28;20252;-82
2023/01/25 04:14:58;;;;;;;0.57;0.57;;;-0.20;99.90;;;;;;5065004;28;20439;-82
2023/01/25 04:17:24;;;;;;;0.60;0.60;;;-0.20;99.90;;;;;;5068785;28;20182;-82
2023/01/25 04:19:49;;;;;;;0.67;0.67;;;-0.20;99.90;;;;;;5067413;28;20213;-82
2023/01/25 04:22:15;;;;;;;0.60;0.60;;;-0.30;99.90;;;;;;5068820;28;20193;-82
2023/01/25 04:24:41;;;;;;;0.70;0.70;;;-0.20;99.90;;;;;;5068962;28;20641;-82
2023/01/25 04:27:07;;;;;;;0.50;0.50;;;-0.20;99.90;;;;;;5068219;28;20451;-82
2023/01/25 04:29:33;;;;;;;0.50;0.50;;;-0.30;99.90;;;;;;5065484;28;21746;-82
2023/01/25 04:31:59;;;;;;;0.57;0.57;;;-0.30;99.90;;;;;;5065464;28;20465;-82
2023/01/25 04:34:24;;;;;;;0.50;0.50;;;-0.30;99.90;;;;;;5066213;28;20474;-82
2023/01/25 04:36:50;;;;;;;0.60;0.60;;;-0.30;99.90;;;;;;5063576;28;20210;-82
2023/01/25 04:39:16;;;;;;;0.60;0.60;;;-0.40;99.90;;;;;;5070138;28;20185;-82
2023/01/25 04:41:41;;;;;;;0.50;0.50;;;-0.30;99.90;;;;;;5064611;28;20190;-82
2023/01/25 04:44:07;;;;;;;0.60;0.60;;;-0.30;99.90;;;;;;5065525;28;20201;-82
2023/01/25 04:46:32;;;;;;;0.60;0.60;;;-0.30;99.90;;;;;;5065461;28;20186;-83
2023/01/25 04:48:58;;;;;;;0.57;0.57;;;-0.30;99.90;;;;;;5067335;28;20182;-82
2023/01/25 04:51:23;;;;;;;0.60;0.60;;;-0.40;99.90;;;;;;5066057;28;20194;-82
2023/01/25 04:53:49;;;;;;;0.60;0.60;;;-0.40;99.90;;;;;;5067600;28;20570;-82
2023/01/25 04:56:14;;;;;;;0.60;0.60;;;-0.40;99.90;;;;;;5066119;28;20563;-82
2023/01/25 04:58:40;;;;;;;0.70;0.70;;;-0.40;99.90;;;;;;5062699;28;20220;-82
2023/01/25 05:01:06;;;;;;;0.50;0.50;;;-0.30;99.90;;;;;;5066122;28;20218;-83
2023/01/25 05:03:31;;;;;;;0.60;0.60;;;-0.20;99.90;;;;;;5063068;28;20182;-83
2023/01/25 05:05:57;;;;;;;0.60;0.60;;;-0.30;99.90;;;;;;5066221;28;20452;-82
2023/01/25 05:08:22;;;;;;;0.50;0.50;;;-0.30;99.90;;;;;;5068849;28;20186;-82
2023/01/25 05:10:48;;;;;;;0.50;0.50;;;-0.30;99.90;;;;;;5068840;28;20190;-82
2023/01/25 05:13:13;;;;;;;0.50;0.50;;;-0.30;99.90;;;;;;5068538;28;20213;-82
2023/01/25 05:15:39;;;;;;;0.67;0.67;;;-0.40;99.90;;;;;;5064160;28;20684;-83
2023/01/25 05:18:04;;;;;;;0.60;0.60;;;-0.30;99.90;;;;;;5068257;28;20681;-83
2023/01/25 05:20:30;;;;;;;0.57;0.57;;;-0.30;99.90;;;;;;5068524;28;20256;-82
2023/01/25 05:22:55;;;;;;;0.60;0.60;;;-0.20;99.90;;;;;;5055753;28;20201;-83
2023/01/25 05:28:06;;;;;;;0.60;0.60;;;-0.30;99.90;;;;;;5062916;28;20240;-82
2023/01/25 05:30:32;;;;;;;0.60;0.60;;;-0.30;99.90;;;;;;5063116;28;20828;-82
2023/01/25 05:32:57;;;;;;;0.40;0.40;;;-0.30;99.90;;;;;;5067967;28;20459;-82
2023/01/25 05:35:23;;;;;;;0.50;0.50;;;-0.40;99.90;;;;;;5068143;28;20511;-82
2023/01/25 05:37:48;;;;;;;0.50;0.50;;;-0.40;99.90;;;;;;5061876;28;20300;-82
2023/01/25 05:40:14;;;;;;;0.63;0.63;;;-0.40;99.90;;;;;;5059380;28;20217;-82
2023/01/25 05:42:40;;;;;;;0.60;0.60;;;-0.40;99.90;;;;;;5063072;28;20178;-82
2023/01/25 05:45:07;;;;;;;0.57;0.57;;;-0.50;99.90;;;;;;5066124;28;20181;-82
2023/01/25 05:47:33;;;;;;;0.60;0.60;;;-0.40;99.90;;;;;;5059876;28;21812;-83
2023/01/25 05:49:58;;;;;;;0.50;0.50;;;-0.40;99.90;;;;;;5062012;28;20435;-82
2023/01/25 05:52:27;;;;;;;0.60;0.60;;;-0.30;99.90;;;;;;5056541;28;20186;-81
2023/01/25 05:54:53;;;;;;;0.60;0.60;;;-0.40;99.90;;;;;;5062995;28;20790;-82
2023/01/25 05:57:18;;;;;;;0.60;0.60;;;-0.40;99.90;;;;;;5062854;28;20480;-82
2023/01/25 05:59:44;;;;;;;0.60;0.60;;;-0.30;99.90;;;;;;5061406;28;20205;-82
2023/01/25 06:02:09;;;;;;;0.63;0.63;;;-0.50;99.90;;;;;;5058910;28;20182;-82
2023/01/25 06:04:35;;;;;;;0.60;0.60;;;-0.50;99.90;;;;;;5059332;28;20178;-82
2023/01/25 06:07:09;;;;;;;0.50;0.50;;;-0.50;99.90;;;;;;5061349;28;20665;-82
2023/01/25 06:09:34;;;;;;;0.60;0.60;;;-0.50;99.90;;;;;;5065112;28;20217;-81
2023/01/25 06:12:00;;;;;;;0.60;0.60;;;-0.40;99.90;;;;;;5064250;28;20941;-81
2023/01/25 06:14:31;;;;;;;0.60;0.60;;;-0.50;99.90;;;;;;5066905;28;20186;-81
2023/01/25 06:16:57;;;;;;;0.70;0.70;;;-0.50;99.90;;;;;;5065883;28;20178;-82
2023/01/25 06:19:23;;;;;;;0.60;0.60;;;-0.50;99.90;;;;;;5067585;28;20687;-82
2023/01/25 06:21:49;;;;;;;0.40;0.40;;;-0.50;99.90;;;;;;5066394;28;20448;-82
2023/01/25 06:24:15;;;;;;;0.60;0.60;;;-0.60;99.90;;;;;;5068007;28;20185;-82
2023/01/25 06:26:40;;;;;;;0.50;0.50;;;-0.60;99.90;;;;;;5067717;28;20467;-81
2023/01/25 06:29:06;;;;;;;0.60;0.60;;;-0.50;99.90;;;;;;5054805;28;20538;-81
2023/01/25 06:31:33;;;;;;;0.50;0.50;;;-0.60;99.90;;;;;;5058185;28;20218;-82
2023/01/25 06:34:03;;;;;;;0.50;0.50;;;-0.70;99.90;;;;;;5064069;28;20440;-83
2023/01/25 06:36:28;;;;;;;0.60;0.60;;;-0.70;99.90;;;;;;5061475;28;20925;-82
2023/01/25 06:38:57;;;;;;;0.57;0.57;;;-0.60;99.90;;;;;;5063622;28;20522;-82
2023/01/25 06:41:23;;;;;;;0.60;0.60;;;-0.70;99.90;;;;;;5064068;28;20221;-83
2023/01/25 06:43:52;;;;;;;0.60;0.60;;;-0.70;99.90;;;;;;5063206;28;20436;-82
2023/01/25 06:46:19;;;;;;;0.60;0.60;;;-0.70;99.90;;;;;;5066440;28;20211;-83
2023/01/25 06:48:44;;;;;;;0.63;0.63;;;-0.70;99.90;;;;;;5065885;28;20522;-82
2023/01/25 06:51:15;;;;;;;0.50;0.50;;;-0.70;99.90;;;;;;5069924;28;20594;-83
2023/01/25 06:53:43;;;;;;;0.47;0.47;;;-0.70;99.90;;;;;;5060872;28;20229;-82
2023/01/25 06:56:32;;;;;;;0.70;0.70;;;-0.70;99.90;;;;;;5070614;28;20443;-83
2023/01/25 06:58:58;;;;;;;0.50;0.50;;;-0.70;99.90;;;;;;5070065;28;20432;-82
2023/01/25 07:01:29;;;;;;;0.63;0.63;;;-0.80;99.90;;;;;;5067217;28;20479;-83
2023/01/25 07:03:56;;;;;;;0.60;0.60;;;-0.70;99.90;;;;;;5067649;28;20578;-82
2023/01/25 07:06:24;;;;;;;0.57;0.57;;;-0.70;99.90;;;;;;5057753;28;20537;-82
2023/01/25 07:08:50;;;;;;;0.60;0.60;;;-0.80;99.90;;;;;;5061005;28;20464;-82
2023/01/25 07:11:17;;;;;;;0.50;0.50;;;-0.80;99.90;;;;;;5060439;28;20991;-82
2023/01/25 07:13:45;;;;;;;0.60;0.60;;;-0.80;99.90;;;;;;5056638;28;20883;-82
2023/01/25 07:16:13;;;;;;;0.47;0.47;;;-0.90;99.90;;;;;;5059114;28;21429;-82
2023/01/25 07:18:39;;;;;;;0.60;0.60;;;-0.90;99.90;;;;;;5056393;28;20436;-81
2023/01/25 07:21:09;;;;;;;0.50;0.50;;;-0.90;99.90;;;;;;5065840;28;20475;-84
2023/01/25 07:23:36;;;;;;;0.70;0.70;;;-0.80;99.90;;;;;;5063587;28;20174;-83
2023/01/25 07:26:03;;;;;;;0.47;0.47;;;-0.80;99.90;;;;;;5064744;28;20500;-85
2023/01/25 07:28:30;;;;;;;0.57;0.57;;;-0.70;99.90;;;;;;5068570;28;20467;-84
2023/01/25 07:31:02;;;;;;;0.60;0.60;;;-0.70;99.90;;;;;;5064749;28;20505;-82
2023/01/25 07:33:51;;;;;;;0.50;0.50;;;-0.80;99.90;;;;;;5069153;28;20457;-83
2023/01/25 07:36:17;;;;;;;0.50;0.50;;;-0.80;99.90;;;;;;5052005;28;20911;-82
2023/01/25 07:38:42;;;;;;;0.70;0.70;;;-0.70;99.90;;;;;;5055182;28;20453;-83
2023/01/25 07:41:11;;;;;;;0.60;0.60;;;-0.70;99.90;;;;;;5065781;28;20509;-83
2023/01/25 07:43:37;;;;;;;0.60;0.60;;;-0.80;99.90;;;;;;5066745;28;20178;-84
2023/01/25 07:46:10;;;;;;;0.60;0.60;;;-0.80;99.90;;;;;;5070155;28;20455;-83
2023/01/25 07:48:47;;;;;;;0.70;0.70;;;-0.80;99.90;;;;;;5072268;28;20166;-84
2023/01/25 07:51:23;;;;;;;0.60;0.60;;;-0.80;99.90;;;;;;5067444;28;20448;-85
2023/01/25 07:53:57;;;;;;;0.60;0.60;;;-0.70;99.90;;;;;;5068801;28;20480;-84
2023/01/25 07:56:27;;;;;;;0.47;0.47;;;-0.80;99.90;;;;;;5070052;28;20451;-84
2023/01/25 07:58:54;;;;;;;0.60;0.60;;;-0.80;99.90;;;;;;5059703;28;20436;-85
2023/01/25 08:01:22;;;;;;;0.60;0.60;;;-0.80;99.90;;;;;;5064585;28;20511;-85
2023/01/25 08:03:48;;;;;;;0.50;0.50;;;-0.80;99.90;;;;;;5065189;28;20465;-85
2023/01/25 08:06:14;;;;;;;0.50;0.50;;;-0.70;99.90;;;;;;5063642;28;20474;-83
2023/01/25 08:08:47;;;;;;;0.60;0.60;;;-0.70;99.90;;;;;;5068994;28;20448;-84
2023/01/25 08:11:15;;;;;;;0.57;0.57;;;-0.70;99.90;;;;;;5065792;28;20725;-86
2023/01/25 08:13:45;;;;;;;0.60;0.60;;;-0.70;99.90;;;;;;5067297;28;20849;-85
2023/01/25 08:16:18;;;;;;;0.60;0.60;;;-0.70;99.90;;;;;;5062746;28;20432;-86
2023/01/25 08:18:47;;;;;;;0.40;0.40;;;-0.60;99.90;;;;;;5057415;28;20425;-87
2023/01/25 08:21:12;;;;;;;0.60;0.60;;;-0.70;99.90;;;;;;5061715;28;20468;-85
2023/01/25 08:23:38;;;;;;;0.70;0.70;;;-0.70;99.90;;;;;;5067418;28;20901;-84
2023/01/25 08:26:09;;;;;;;0.60;0.60;;;-0.70;99.90;;;;;;5064377;28;20640;-87
2023/01/25 08:28:35;;;;;;;0.50;0.50;;;-0.70;99.90;;;;;;5071274;28;20206;-85
2023/01/25 08:31:10;;;;;;;0.50;0.50;;;-0.80;99.90;;;;;;5066129;28;20479;-85
2023/01/25 08:33:41;;;;;;;0.60;0.60;;;-0.80;99.90;;;;;;5068616;28;20189;-85
2023/01/25 08:36:08;;;;;;;0.60;0.60;;;-0.90;99.90;;;;;;5068559;28;20452;-86
2023/01/25 08:38:34;;;;;;;0.50;0.50;;;-0.80;99.90;;;;;;5070654;28;21059;-86
2023/01/25 08:41:08;;;;;;;0.50;0.50;;;-0.90;99.90;;;;;;5068576;28;20502;-86
2023/01/25 08:43:34;;;;;;;0.50;0.50;;;-0.90;99.90;;;;;;5064208;28;20444;-84
2023/01/25 08:46:00;;;;;;;0.50;0.50;;;-0.90;99.90;;;;;;5064320;28;20448;-81
2023/01/25 08:48:26;;;;;;;0.50;0.50;;;-0.90;99.90;;;;;;5067987;28;20444;-83
2023/01/25 08:50:51;;;;;;;0.60;0.60;;;-0.80;99.90;;;;;;5068898;28;20440;-83
2023/01/25 08:53:17;;;;;;;0.60;0.60;;;-0.80;99.90;;;;;;5060965;28;20232;-84
2023/01/25 08:55:43;;;;;;;0.50;0.50;;;-0.90;99.90;;;;;;5059253;28;20658;-82
2023/01/25 08:58:10;;;;;;;0.53;0.53;;;-1.00;99.90;;;;;;5055563;28;20602;-85
2023/01/25 09:00:41;;;;;;;0.60;0.60;;;-1.00;99.90;;;;;;5050145;28;21034;-85
2023/01/25 09:03:07;;;;;;;0.57;0.57;;;-1.00;99.90;;;;;;5055771;28;20465;-83
2023/01/25 09:05:34;;;;;;;0.60;0.60;;;-0.90;99.90;;;;;;5066136;28;20502;-81
2023/01/25 09:08:00;;;;;;;0.60;0.60;;;-0.90;99.90;;;;;;5064055;28;20497;-79
2023/01/25 09:10:26;;;;;;;0.60;0.60;;;-1.00;99.90;;;;;;5057560;28;20444;-80
2023/01/25 09:13:00;;;;;;;0.60;0.60;;;-0.90;99.90;;;;;;5056983;28;20964;-85
2023/01/25 09:15:26;;;;;;;0.70;0.70;;;-0.90;99.90;;;;;;5056706;28;20217;-80
2023/01/25 09:17:53;;;;;;;0.60;0.60;;;-1.00;99.90;;;;;;5063466;28;20487;-86
2023/01/25 09:20:19;;;;;;;0.60;0.60;;;-0.90;99.90;;;;;;5066032;28;21226;-82
2023/01/25 09:22:45;;;;;;;0.60;0.60;;;-0.80;99.90;;;;;;5059011;28;20436;-85
2023/01/25 09:25:10;;;;;;;0.50;0.50;;;-0.80;99.90;;;;;;5066674;28;20893;-83
2023/01/25 09:27:37;;;;;;;0.50;0.50;;;-0.70;99.90;;;;;;5064896;28;20445;-82
2023/01/25 09:30:04;;;;;;;0.70;0.70;;;-0.80;99.90;;;;;;5067453;28;20709;-82
2023/01/25 09:32:29;;;;;;;0.60;0.60;;;-0.90;99.90;;;;;;5067403;28;20803;-82
2023/01/25 09:34:55;;;;;;;0.40;0.40;;;-0.90;99.90;;;;;;5067437;28;20478;-83
2023/01/25 09:37:20;;;;;;;0.60;0.60;;;-0.90;99.90;;;;;;5068943;28;20189;-83
2023/01/25 09:39:46;;;;;;;0.60;0.60;;;-0.80;99.90;;;;;;5061580;28;20198;-83
2023/01/25 09:42:27;;;;;;;0.50;0.50;;;-0.80;99.90;;;;;;5053455;28;20557;-83
2023/01/25 09:45:20;;;;;;;0.50;0.50;;;-0.80;99.90;;;;;;5063564;28;20668;-83
2023/01/25 09:48:23;;;;;;;0.50;0.50;;;-0.90;99.90;;;;;;5064914;28;20459;-82
2023/01/25 09:51:03;;;;;;;0.50;0.50;;;-0.90;99.90;;;;;;5062798;28;20452;-82
2023/01/25 09:53:33;;;;;;;0.60;0.60;;;-0.90;99.90;;;;;;5057956;28;20475;-83
2023/01/25 09:56:24;;;;;;;0.60;0.60;;;-0.90;99.90;;;;;;5070165;28;20420;-83
2023/01/25 09:58:58;;;;;;;0.50;0.50;;;-0.90;99.90;;;;;;5059251;28;20863;-83
2023/01/25 10:02:11;;;;;;;0.43;0.43;;;-0.80;99.90;;;;;;5054310;28;20479;-83
2023/01/25 10:04:41;;;;;;;0.40;0.40;;;-0.90;99.90;;;;;;5014480;28;20450;-82
2023/01/25 10:07:29;;;;;;;0.50;0.50;;;-0.90;99.90;;;;;;5010861;28;20426;-82
2023/01/25 10:10:26;;;;;;;0.50;0.50;;;-0.90;99.90;;;;;;5048171;28;20452;-82
2023/01/25 10:12:52;;;;;;;0.50;0.50;;;-0.90;99.90;;;;;;5060215;28;20437;-82
2023/01/25 10:15:27;;;;;;;0.50;0.50;;;-1.00;99.90;;;;;;5059432;28;20447;-84
2023/01/25 10:18:05;;;;;;;0.50;0.50;;;-1.10;99.90;;;;;;5063353;28;20193;-84
2023/01/25 10:20:48;;;;;;;0.50;0.50;;;-1.10;99.90;;;;;;5062408;28;20540;-84
2023/01/25 10:23:40;;;;;;;0.60;0.60;;;-1.20;99.90;;;;;;5069245;28;20505;-83
2023/01/25 10:26:41;;;;;;;0.50;0.50;;;-1.10;99.90;;;;;;5070472;28;20443;-83
2023/01/25 10:29:15;;;;;;;0.70;0.70;;;-1.00;99.90;;;;;;5063206;28;20435;-83
2023/01/25 10:31:52;;;;;;;0.50;0.50;;;-1.00;99.90;;;;;;5070136;28;20921;-83
2023/01/25 10:34:42;;;;;;;0.60;0.60;;;-1.00;99.90;;;;;;5070060;28;20474;-83
2023/01/25 10:37:18;;;;;;;0.50;0.50;;;-1.20;99.90;;;;;;5063584;28;20436;-83
2023/01/25 10:39:57;;;;;;;0.60;0.60;;;-1.10;99.90;;;;;;5057392;28;20852;-82
2023/01/25 10:42:26;;;;;;;0.50;0.50;;;-1.20;99.90;;;;;;5070277;28;20781;-84
2023/01/25 10:44:51;;;;;;;0.60;0.60;;;-1.20;99.90;;;;;;5059925;28;20441;-82
2023/01/25 10:47:27;;;;;;;0.60;0.60;;;-1.20;99.90;;;;;;5058512;28;20448;-82
2023/01/25 10:49:58;;;;;;;0.60;0.60;;;-1.30;99.90;;;;;;5058897;28;20185;-83
2023/01/25 10:52:26;;;;;;;0.60;0.60;;;-1.20;99.90;;;;;;5068511;28;20467;-84
2023/01/25 10:55:14;;;;;;;0.43;0.43;;;-1.20;99.90;;;;;;5061276;28;20453;-83
2023/01/25 10:57:57;;;;;;;0.60;0.60;;;-1.10;99.90;;;;;;5068431;28;20508;-82
2023/01/25 11:00:26;;;;;;;0.40;0.40;;;-1.10;99.90;;;;;;5060322;28;20860;-83
2023/01/25 11:02:53;;;;;;;0.60;0.60;;;-1.20;99.90;;;;;;5060049;28;20442;-83
2023/01/25 11:05:18;;;;;;;0.70;0.70;;;-1.20;99.90;;;;;;5069447;28;20439;-82
2023/01/25 11:07:47;;;;;;;0.60;0.60;;;-1.10;99.90;;;;;;5062998;28;20448;-84
2023/01/25 11:10:33;;;;;;;0.60;0.60;;;-1.20;99.90;;;;;;5063247;28;20182;-82
2023/01/25 11:13:31;;;;;;;0.70;0.70;;;-1.10;99.90;;;;;;5065744;28;20451;-82
2023/01/25 11:16:06;;;;;;;0.60;0.60;;;-1.10;99.90;;;;;;5062546;28;20989;-83
2023/01/25 11:18:33;;;;;;;0.60;0.60;;;-0.90;99.90;;;;;;5067940;28;20455;-84
2023/01/25 11:21:03;;;;;;;0.60;0.60;;;-1.00;99.90;;;;;;5071612;28;20484;-84
2023/01/25 11:23:45;;;;;;;0.60;0.60;;;-1.10;99.90;;;;;;5067484;28;20451;-84
2023/01/25 11:26:18;;;;;;;0.60;0.60;;;-0.90;99.90;;;;;;5067821;28;20436;-85
2023/01/25 11:28:47;;;;;;;0.50;0.50;;;-1.00;99.90;;;;;;5065493;28;20476;-85
2023/01/25 11:31:25;;;;;;;0.70;0.70;;;-1.00;99.90;;;;;;5065404;28;20444;-83
2023/01/25 11:33:50;;;;;;;0.57;0.57;;;-0.90;99.90;;;;;;5069831;28;20437;-83
2023/01/25 11:36:43;;;;;;;0.50;0.50;;;-0.80;99.90;;;;;;5068113;28;20641;-84
2023/01/25 11:43:06;;;;;;;0.47;0.47;;;-0.90;99.90;;;;;;5045104;28;20463;-83
2023/01/25 11:46:12;;;;;;;0.50;0.50;;;-0.90;99.90;;;;;;5066417;28;20555;-84
2023/01/25 11:49:20;;;;;;;0.40;0.40;;;-0.90;99.90;;;;;;5063946;28;20475;-84
2023/01/25 11:51:55;;;;;;;0.60;0.60;;;-1.00;99.90;;;;;;5052955;28;20449;-84
2023/01/25 11:54:45;;;;;;;0.50;0.50;;;-0.90;99.90;;;;;;5066371;28;21077;-84
2023/01/25 11:58:06;;;;;;;0.60;0.60;;;-0.90;99.90;;;;;;5064024;28;20440;-84
2023/01/25 12:00:40;;;;;;;0.50;0.50;;;-0.90;99.90;;;;;;5025295;28;21082;-84
2023/01/25 12:03:43;;;;;;;0.47;0.47;;;-0.80;99.90;;;;;;5066133;28;22608;-84
2023/01/25 12:06:36;;;;;;;0.60;0.60;;;-1.00;99.90;;;;;;5063141;28;20444;-83
2023/01/25 12:09:36;;;;;;;0.50;0.50;;;-1.00;99.90;;;;;;5069392;28;20447;-84
2023/01/25 12:12:24;;;;;;;0.60;0.60;;;-1.00;99.90;;;;;;5066311;28;20591;-84
2023/01/25 12:15:07;;;;;;;0.40;0.40;;;-0.90;99.90;;;;;;5062993;28;20476;-84
2023/01/25 12:18:04;;;;;;;0.60;0.60;;;-0.80;99.90;;;;;;5070722;28;20436;-84
2023/01/25 12:20:59;;;;;;;0.50;0.50;;;-0.80;99.90;;;;;;5064261;28;21047;-83
2023/01/25 12:24:01;;;;;;;0.67;0.67;;;-0.90;99.90;;;;;;5054437;28;20515;-85
2023/01/25 12:26:50;;;;;;;0.57;0.57;;;-0.90;99.90;;;;;;5069171;28;20943;-86
2023/01/25 12:29:21;;;;;;;0.50;0.50;;;-0.90;99.90;;;;;;5064898;28;20975;-85
2023/01/25 12:31:52;;;;;;;0.60;0.60;;;-0.90;99.90;;;;;;5067540;28;20439;-86
2023/01/25 12:34:34;;;;;;;0.60;0.60;;;-0.80;99.90;;;;;;5059260;28;20440;-85
2023/01/25 12:37:14;;;;;;;0.50;0.50;;;-0.80;99.90;;;;;;5061287;28;21097;-85
2023/01/25 12:39:47;;;;;;;0.50;0.50;;;-0.90;99.90;;;;;;5067944;28;20964;-82
2023/01/25 12:42:31;;;;;;;0.60;0.60;;;-0.90;99.90;;;;;;5067713;28;20444;-85
2023/01/25 12:45:10;;;;;;;0.53;0.53;;;-0.90;99.90;;;;;;5066079;28;20435;-83
2023/01/25 12:48:06;;;;;;;0.60;0.60;;;-1.10;99.90;;;;;;5075865;28;20857;-82
2023/01/25 12:50:41;;;;;;;0.60;0.60;;;-1.00;99.90;;;;;;5061430;28;20805;-83
2023/01/25 12:53:16;;;;;;;0.70;0.70;;;-1.10;99.90;;;;;;5068275;28;20554;-83
2023/01/25 12:55:43;;;;;;;0.60;0.60;;;-1.10;99.90;;;;;;5063417;28;20452;-83
2023/01/25 12:58:32;;;;;;;0.50;0.50;;;-1.20;99.90;;;;;;5064946;28;20429;-82
2023/01/25 13:01:14;;;;;;;0.60;0.60;;;-1.10;99.90;;;;;;5063356;28;20511;-83
2023/01/25 13:04:18;;;;;;;0.50;0.50;;;-1.20;99.90;;;;;;5068037;28;20557;-83
2023/01/25 13:07:26;;;;;;;0.60;0.60;;;-1.20;99.90;;;;;;5059488;28;20474;-83
2023/01/25 13:10:13;;;;;;;0.80;0.80;;;-1.20;99.90;;;;;;5069428;28;20435;-82
2023/01/25 13:12:57;;;;;;;0.60;0.60;;;-1.20;99.90;;;;;;5065623;28;20459;-84
2023/01/25 13:15:38;;;;;;;0.53;0.53;;;-1.20;99.90;;;;;;5065563;28;20512;-83
2023/01/25 13:18:23;;;;;;;0.70;0.70;;;-1.10;99.90;;;;;;5052628;28;20534;-83